Terminal Aerodrome Forecast
Issued by NWS

Home | Current Version | Previous Version | Text Only | Print | Product List | Glossary On
Versions: 1 2 3 4 5 6 7 8 9 10 11 12 13 14 15 16 17 18 19 20 21 22 23 24 25 26 27 28 29 30 31 32
000
FTUS41 KGYX 282300
TAFLEB
TAF
KLEB 282320Z 2900/2924 VRB03KT 6SM -SHRA SCT007 OVC035
     FM290300 VRB03KT 1 1/2SM -SHRA BR SCT007 OVC015
     FM290500 VRB03KT 3/4SM BR BKN002
     FM291100 29003KT 3SM BR SCT002 BKN040
     FM291200 31008KT P6SM BKN040=

USA.gov is the U.S. government's official web portal to all federal, state and local government web resources and services.